Time;durP1;ratioP1;P1;durP2;ratioP2;P2;SDS_P1;SDS_P2;PMS_P1;PMS_P2;Temp;Humidity;BMP_temperature;BMP_pressure;BME280_temperature;BME280_humidity;BME280_pressure;Samples;Min_cycle;Max_cycle;Signal;HPM_P1;HPM_P2
2022/07/04 00:00:34;;;;;;;;;14.00;14.00;;;;;21.81;65.43;99553.84;6317136;20;3512885;-64
2022/07/04 00:03:03;;;;;;;;;13.00;13.00;;;;;21.87;65.37;99551.28;6285131;20;3538017;-64
2022/07/04 00:05:32;;;;;;;;;14.00;12.00;;;;;21.89;65.72;99549.25;6284036;20;2491969;-64
2022/07/04 00:08:01;;;;;;;;;13.00;13.00;;;;;21.94;65.53;99551.47;6318477;20;3532635;-64
2022/07/04 00:10:29;;;;;;;;;15.00;13.00;;;;;21.95;65.28;99546.84;6317027;20;2804449;-64
2022/07/04 00:12:58;;;;;;;;;9.33;9.33;;;;;21.89;65.35;99553.84;6285337;20;2769159;-64
2022/07/04 00:15:27;;;;;;;;;13.67;13.67;;;;;22.31;63.61;99547.38;6315485;20;3537738;-65
2022/07/04 00:17:55;;;;;;;;;13.00;13.00;;;;;22.42;62.92;99544.25;6283614;20;3519054;-64
2022/07/04 00:20:24;;;;;;;;;12.67;12.67;;;;;22.60;62.02;99548.69;6282275;20;3528436;-65
2022/07/04 00:22:53;;;;;;;;;12.00;12.00;;;;;22.62;61.33;99544.72;6318058;20;3538832;-64
2022/07/04 00:25:22;;;;;;;;;14.00;13.00;;;;;22.54;61.19;99552.97;6287611;20;3529561;-63
2022/07/04 00:27:50;;;;;;;;;12.00;12.00;;;;;22.45;62.40;99538.44;6284235;20;3529531;-64
2022/07/04 00:30:19;;;;;;;;;12.67;12.00;;;;;22.27;63.23;99543.25;6283224;20;3534820;-64
2022/07/04 00:32:48;;;;;;;;;12.33;12.00;;;;;22.16;63.72;99551.78;6288935;20;3525292;-64
2022/07/04 00:35:16;;;;;;;;;13.00;11.67;;;;;22.20;63.34;99553.19;6287850;20;2806501;-64
2022/07/04 00:37:45;;;;;;;;;11.33;11.33;;;;;21.61;64.45;99551.44;6321824;20;2794005;-64
2022/07/04 00:40:13;;;;;;;;;13.00;13.00;;;;;21.48;65.86;99546.47;6324443;20;2483600;-64
2022/07/04 00:42:41;;;;;;;;;11.00;11.00;;;;;21.32;66.22;99551.84;6291624;20;2792129;-64
2022/07/04 00:45:10;;;;;;;;;11.00;11.00;;;;;21.36;66.28;99547.78;6316831;20;3529411;-64
2022/07/04 00:47:39;;;;;;;;;15.67;14.33;;;;;21.65;65.44;99552.81;6283538;20;3534673;-64
2022/07/04 00:50:08;;;;;;;;;11.33;11.33;;;;;21.50;65.89;99549.03;6320021;20;2794041;-64
2022/07/04 00:52:37;;;;;;;;;11.33;11.33;;;;;21.58;65.78;99550.94;6315928;20;3508621;-64
2022/07/04 00:55:06;;;;;;;;;12.00;12.00;;;;;21.92;64.59;99556.25;6312684;20;3532723;-64
2022/07/04 00:57:35;;;;;;;;;12.67;11.33;;;;;22.18;63.15;99557.94;6281288;20;3517928;-64
2022/07/04 01:00:05;;;;;;;;;16.00;14.00;;;;;22.11;63.24;99550.41;6285758;20;2810668;-64
2022/07/04 01:02:33;;;;;;;;;13.00;13.00;;;;;22.09;63.51;99551.63;6317529;20;2479416;-64
2022/07/04 01:05:02;;;;;;;;;12.00;12.00;;;;;22.31;62.46;99544.63;6316879;20;2483609;-64
2022/07/04 01:07:31;;;;;;;;;12.00;11.67;;;;;22.20;62.12;99537.63;6314552;20;3536727;-64
2022/07/04 01:09:59;;;;;;;;;12.33;12.00;;;;;22.38;61.80;99545.66;6284706;20;3513821;-64
2022/07/04 01:12:31;;;;;;;;;13.67;10.33;;;;;22.32;61.05;99543.59;6281329;20;3513895;-64
2022/07/04 01:15:00;;;;;;;;;11.00;11.00;;;;;22.23;61.35;99539.19;6316932;20;2483637;-64
2022/07/04 01:17:28;;;;;;;;;14.33;13.33;;;;;22.08;62.84;99531.63;6317644;20;3527446;-65
2022/07/04 01:19:57;;;;;;;;;13.00;11.00;;;;;21.98;62.52;99530.09;6313915;20;3531478;-65
2022/07/04 01:22:26;;;;;;;;;10.33;10.33;;;;;22.08;62.01;99528.88;6314931;20;3515899;-64
2022/07/04 01:24:54;;;;;;;;;12.00;12.00;;;;;22.09;61.66;99532.47;6310823;20;3531473;-64
2022/07/04 01:27:23;;;;;;;;;14.00;12.00;;;;;22.01;62.35;99530.63;6281817;20;3529465;-64
2022/07/04 01:29:52;;;;;;;;;10.33;10.33;;;;;21.94;62.61;99534.22;6314228;20;3516965;-64
2022/07/04 01:32:20;;;;;;;;;13.33;13.33;;;;;21.80;63.74;99533.00;6312571;20;3527618;-65
2022/07/04 01:34:49;;;;;;;;;15.00;13.33;;;;;21.81;63.10;99532.00;6284041;20;3529381;-64
2022/07/04 01:37:18;;;;;;;;;13.33;13.33;;;;;21.88;63.05;99531.13;6311361;20;3524184;-65
2022/07/04 01:39:47;;;;;;;;;11.67;11.67;;;;;21.80;62.86;99527.53;6315214;20;2491937;-64
2022/07/04 01:42:16;;;;;;;;;13.00;11.33;;;;;21.75;63.25;99529.91;6319491;20;2800293;-64
2022/07/04 01:44:44;;;;;;;;;14.00;11.67;;;;;21.52;63.94;99536.06;6314445;20;3532590;-65
2022/07/04 01:47:13;;;;;;;;;12.00;12.00;;;;;21.55;64.03;99530.25;6313107;20;3539829;-65
2022/07/04 01:49:42;;;;;;;;;14.33;14.33;;;;;21.59;63.82;99537.09;6285126;20;3533659;-65
2022/07/04 01:52:10;;;;;;;;;10.00;10.00;;;;;21.56;64.02;99542.88;6281858;20;3507555;-64
2022/07/04 01:54:39;;;;;;;;;11.67;11.67;;;;;21.56;63.71;99542.88;6312268;20;3517960;-64
2022/07/04 01:57:08;;;;;;;;;10.67;10.67;;;;;21.48;63.76;99542.88;6280180;20;3511694;-64
2022/07/04 02:02:24;;;;;;;;;13.00;11.67;;;;;21.43;63.67;99542.53;6317370;20;2792996;-65
2022/07/04 02:04:53;;;;;;;;;13.33;12.33;;;;;21.33;64.06;99541.78;6310601;20;3511737;-64
2022/07/04 02:07:22;;;;;;;;;12.00;12.00;;;;;21.28;64.55;99550.50;6308464;20;3529578;-64
2022/07/04 02:09:51;;;;;;;;;14.00;12.00;;;;;21.18;65.00;99555.25;6285836;20;2624252;-64
2022/07/04 02:15:08;;;;;;;;;13.67;12.00;;;;;21.34;63.93;99559.91;6283399;20;3525433;-64
2022/07/04 02:17:36;;;;;;;;;13.00;12.00;;;;;21.37;63.86;99556.81;6316771;20;2786695;-64
2022/07/04 02:20:06;;;;;;;;;12.67;11.00;;;;;21.39;63.79;99557.56;6313361;20;2483602;-64
2022/07/04 02:22:34;;;;;;;;;13.67;12.67;;;;;21.39;63.80;99555.66;6311741;20;2808582;-65
2022/07/04 02:25:04;;;;;;;;;14.33;14.33;;;;;21.13;64.60;99566.66;6312389;20;2483636;-65
2022/07/04 02:27:33;;;;;;;;;13.00;12.67;;;;;21.19;64.39;99565.97;6316923;20;2815272;-64
2022/07/04 02:30:01;;;;;;;;;13.50;13.50;;;;;21.17;64.82;99568.06;6313928;20;2483695;-64
2022/07/04 02:32:29;;;;;;;;;13.67;13.00;;;;;21.13;64.89;99574.84;6283542;20;3535668;-64
2022/07/04 02:34:58;;;;;;;;;14.33;13.00;;;;;21.16;64.73;99569.06;6282429;20;3526269;-63
2022/07/04 02:37:53;;;;;;;;;14.67;11.67;;;;;20.98;64.96;99571.03;6310996;20;3537806;-64
2022/07/04 02:40:21;;;;;;;;;14.00;12.67;;;;;21.13;64.03;99572.13;6280537;20;3527489;-65
2022/07/04 02:42:50;;;;;;;;;14.00;12.50;;;;;21.25;63.97;99578.16;6311604;20;3385629;-64
2022/07/04 02:45:18;;;;;;;;;13.00;13.00;;;;;21.21;64.33;99577.59;6312543;20;3543024;-64
2022/07/04 02:47:47;;;;;;;;;10.67;10.00;;;;;21.37;63.45;99581.41;6288798;20;2782621;-64
2022/07/04 02:50:15;;;;;;;;;13.33;12.00;;;;;21.50;62.35;99584.53;6314320;20;3509670;-64
2022/07/04 02:52:44;;;;;;;;;12.67;11.33;;;;;21.40;63.16;99583.84;6314878;20;3520114;-64
2022/07/04 02:55:12;;;;;;;;;14.33;13.00;;;;;21.36;63.36;99580.56;6314954;20;2491982;-65
2022/07/04 02:57:41;;;;;;;;;16.00;13.00;;;;;21.43;62.43;99580.75;6309509;20;3543103;-65
2022/07/04 03:00:11;;;;;;;;;16.00;13.33;;;;;21.40;62.71;99581.09;6281431;20;3532527;-65
2022/07/04 03:02:39;;;;;;;;;13.33;13.33;;;;;21.37;63.27;99573.22;6281528;20;2496626;-65
2022/07/04 03:05:08;;;;;;;;;11.00;11.00;;;;;21.29;63.28;99581.38;6314735;20;2786959;-64
2022/07/04 03:07:37;;;;;;;;;15.00;13.00;;;;;21.39;63.16;99582.13;6313349;20;3519193;-65
2022/07/04 03:10:07;;;;;;;;;14.33;13.00;;;;;21.50;62.29;99581.81;6281868;20;3526407;-65
2022/07/04 03:12:35;;;;;;;;;12.67;12.67;;;;;21.56;62.34;99581.13;6280056;20;3528063;-65
2022/07/04 03:15:05;;;;;;;;;11.00;9.67;;;;;21.65;62.14;99584.75;6314671;20;3497093;-64
2022/07/04 03:17:34;;;;;;;;;13.67;12.67;;;;;21.58;62.40;99581.81;6313433;20;2489859;-65
2022/07/04 03:20:02;;;;;;;;;12.00;12.00;;;;;21.65;62.30;99582.03;6314772;20;2483629;-64
2022/07/04 03:22:31;;;;;;;;;16.33;13.33;;;;;21.62;61.74;99577.75;6313660;20;2485729;-65
2022/07/04 03:24:59;;;;;;;;;11.00;11.00;;;;;21.68;62.16;99585.25;6306062;20;3518097;-64
2022/07/04 03:27:28;;;;;;;;;14.00;12.00;;;;;21.82;61.47;99577.41;6310575;20;3503446;-64
2022/07/04 03:29:57;;;;;;;;;12.67;10.33;;;;;21.83;61.77;99581.88;6312154;20;3502313;-64
2022/07/04 03:32:25;;;;;;;;;11.00;11.00;;;;;21.84;61.71;99576.22;6312996;20;3525215;-65
2022/07/04 03:34:54;;;;;;;;;13.33;13.33;;;;;21.82;62.23;99577.41;6283945;20;2799314;-65
2022/07/04 03:37:22;;;;;;;;;12.00;12.00;;;;;21.92;61.42;99578.13;6308757;20;3530509;-65
2022/07/04 03:39:51;;;;;;;;;13.67;13.00;;;;;21.94;61.00;99584.28;6313192;20;2491957;-64
2022/07/04 03:42:19;;;;;;;;;15.67;14.67;;;;;21.80;62.09;99576.72;6311625;20;3536851;-64
2022/07/04 03:44:48;;;;;;;;;12.00;12.00;;;;;21.86;62.10;99578.81;6278616;20;3533955;-64
2022/07/04 03:47:17;;;;;;;;;11.67;11.00;;;;;21.86;61.36;99573.34;6278355;20;3515928;-64
2022/07/04 03:49:46;;;;;;;;;14.00;14.00;;;;;21.71;63.97;99578.59;6277031;20;3536751;-64
2022/07/04 03:52:14;;;;;;;;;13.33;12.00;;;;;21.91;62.05;99571.81;6281060;20;3535650;-62
2022/07/04 03:54:44;;;;;;;;;12.67;11.00;;;;;22.11;60.71;99574.19;6280782;20;3531515;-62
2022/07/04 03:57:12;;;;;;;;;13.00;11.33;;;;;22.15;60.94;99575.56;6314334;20;2790915;-63
2022/07/04 03:59:41;;;;;;;;;13.00;13.00;;;;;22.03;61.52;99580.50;6309716;20;3531495;-62
2022/07/04 04:02:09;;;;;;;;;14.33;14.00;;;;;21.98;62.57;99574.69;6311398;20;3524283;-63
2022/07/04 04:07:25;;;;;;;;;13.67;13.67;;;;;22.14;62.29;99582.91;6277916;20;3530439;-53
2022/07/04 04:09:54;;;;;;;;;14.00;14.00;;;;;22.10;61.59;99577.94;6275678;20;2804514;-55
2022/07/04 04:12:23;;;;;;;;;16.00;14.67;;;;;22.31;61.84;99581.03;6279577;20;2483639;-52
2022/07/04 04:14:51;;;;;;;;;18.00;16.00;;;;;22.32;62.07;99573.69;6309424;20;2826351;-53
2022/07/04 04:17:20;;;;;;;;;11.00;10.33;;;;;22.39;61.58;99579.34;6277213;20;3513778;-57
2022/07/04 04:19:49;;;;;;;;;16.50;16.00;;;;;22.62;61.01;99577.56;6311159;20;2833583;-62
2022/07/04 04:22:17;;;;;;;;;15.33;14.00;;;;;22.72;60.65;99577.34;6280073;20;3536718;-62
2022/07/04 04:24:46;;;;;;;;;20.50;14.00;;;;;22.95;59.05;99589.25;6272963;20;2810774;-58
2022/07/04 04:27:14;;;;;;;;;15.33;14.33;;;;;23.09;58.96;99584.09;6276103;20;2492012;-58
2022/07/04 04:29:43;;;;;;;;;13.67;13.67;;;;;23.09;59.74;99586.84;6310865;20;3531513;-63
2022/07/04 04:32:12;;;;;;;;;18.00;12.33;;;;;22.95;60.24;99586.53;6308361;20;3532778;-60
2022/07/04 04:34:40;;;;;;;;;14.00;14.00;;;;;23.21;58.64;99597.22;6278205;20;3537772;-60
2022/07/04 04:37:09;;;;;;;;;17.00;13.50;;;;;23.35;58.53;99589.28;6306757;20;2805495;-60
2022/07/04 04:39:39;;;;;;;;;17.67;14.33;;;;;23.57;57.87;99587.66;6273004;20;2496105;-60
2022/07/04 04:42:07;;;;;;;;;14.67;13.67;;;;;23.62;58.33;99585.22;6315036;20;2802330;-61
2022/07/04 04:44:36;;;;;;;;;13.00;12.50;;;;;23.76;57.58;99586.34;6310883;20;2801310;-60
2022/07/04 04:47:04;;;;;;;;;12.33;12.00;;;;;23.70;58.13;99587.03;6284137;20;3509655;-60
2022/07/04 04:49:33;;;;;;;;;13.33;11.67;;;;;23.88;57.86;99585.75;6289125;20;2801333;-60
2022/07/04 04:52:02;;;;;;;;;11.00;10.33;;;;;24.02;57.59;99586.81;6321689;20;3529442;-60
2022/07/04 04:54:30;;;;;;;;;14.33;14.00;;;;;24.19;57.18;99582.03;6287277;20;2487762;-61
2022/07/04 04:56:59;;;;;;;;;14.33;13.00;;;;;24.41;56.07;99587.66;6320559;20;2483590;-61
2022/07/04 04:59:29;;;;;;;;;15.33;14.00;;;;;24.50;56.36;99586.59;6321302;20;2483580;-60
2022/07/04 05:01:59;;;;;;;;;14.67;13.00;;;;;24.85;55.87;99581.41;6319656;20;2488184;-60
2022/07/04 05:04:28;;;;;;;;;14.00;14.00;;;;;24.94;58.57;99575.63;6321426;20;2500284;-60
2022/07/04 05:06:57;;;;;;;;;15.33;14.00;;;;;24.92;61.20;99576.88;6319591;20;3537927;-60
2022/07/04 05:09:26;;;;;;;;;15.33;13.33;;;;;25.10;61.02;99582.81;6324914;20;3536681;-60
2022/07/04 05:11:54;;;;;;;;;16.33;15.00;;;;;25.16;60.40;99582.09;6319954;20;3548593;-61
2022/07/04 05:14:23;;;;;;;;;16.00;15.00;;;;;25.49;58.57;99589.91;6320493;20;2814977;-60
2022/07/04 05:16:51;;;;;;;;;16.33;16.00;;;;;25.70;58.12;99586.34;6287370;20;2487739;-61
2022/07/04 05:19:20;;;;;;;;;15.33;15.00;;;;;25.89;57.10;99589.53;6322233;20;3539898;-61
2022/07/04 05:21:49;;;;;;;;;13.67;13.67;;;;;26.16;55.07;99591.47;6319546;20;2491935;-61
2022/07/04 05:24:17;;;;;;;;;19.00;14.67;;;;;26.57;52.88;99603.69;6319841;20;2483759;-61
2022/07/04 05:26:46;;;;;;;;;13.00;13.00;;;;;26.79;50.24;99602.59;6317857;20;3532010;-62
2022/07/04 05:29:14;;;;;;;;;15.00;14.00;;;;;27.12;51.09;99597.28;6321200;20;3531526;-61
2022/07/04 05:31:43;;;;;;;;;13.00;11.67;;;;;27.20;51.05;99596.28;6316181;20;3514837;-61
2022/07/04 05:34:11;;;;;;;;;11.00;10.33;;;;;27.08;51.14;99608.91;6320098;20;2483600;-62
2022/07/04 05:36:40;;;;;;;;;11.67;11.67;;;;;27.29;51.21;99603.31;6316811;20;3514824;-62
2022/07/04 05:39:08;;;;;;;;;14.00;12.67;;;;;27.53;50.30;99606.59;6322578;20;3517926;-61
2022/07/04 05:41:37;;;;;;;;;11.00;11.00;;;;;27.57;48.83;99605.13;6319857;20;3529400;-62
2022/07/04 05:44:05;;;;;;;;;12.33;11.33;;;;;27.79;47.59;99603.91;6322882;20;3523193;-62
2022/07/04 05:46:34;;;;;;;;;15.67;12.33;;;;;27.97;46.52;99610.78;6316045;20;2483618;-62
2022/07/04 05:49:03;;;;;;;;;13.67;13.67;;;;;28.05;46.59;99607.81;6315561;20;3521214;-62
2022/07/04 05:51:32;;;;;;;;;12.00;10.00;;;;;28.15;44.76;99611.03;6284676;20;3513824;-63
2022/07/04 05:54:00;;;;;;;;;11.00;10.00;;;;;28.42;44.23;99616.56;6282544;20;3523121;-62
2022/07/04 05:56:30;;;;;;;;;13.00;12.00;;;;;28.44;42.98;99615.31;6280738;20;3498151;-62
2022/07/04 05:58:58;;;;;;;;;12.67;11.00;;;;;28.58;42.16;99613.41;6315593;20;3514801;-61
2022/07/04 06:01:27;;;;;;;;;11.00;9.67;;;;;28.86;41.72;99615.09;6284390;20;3501267;-62
2022/07/04 06:03:55;;;;;;;;;11.00;10.00;;;;;28.80;41.20;99616.75;6315882;20;3514962;-65
2022/07/04 06:06:24;;;;;;;;;10.00;10.00;;;;;29.14;40.58;99616.75;6316460;20;3500283;-62
2022/07/04 06:08:52;;;;;;;;;12.67;11.00;;;;;29.39;40.81;99622.41;6314938;20;3528524;-62
2022/07/04 06:11:21;;;;;;;;;9.00;9.00;;;;;29.46;39.86;99620.44;6291789;20;3474193;-63
2022/07/04 06:13:50;;;;;;;;;10.00;9.00;;;;;29.83;38.98;99632.63;6315008;20;3484621;-63
2022/07/04 06:16:19;;;;;;;;;9.00;9.00;;;;;29.80;38.89;99630.31;6314806;20;3479398;-63
2022/07/04 06:18:48;;;;;;;;;10.00;8.67;;;;;30.03;38.33;99634.47;6315985;20;2758589;-63
2022/07/04 06:21:16;;;;;;;;;7.33;7.33;;;;;30.37;36.16;99633.19;6326474;20;2752344;-63
2022/07/04 06:23:45;;;;;;;;;8.00;7.67;;;;;30.34;34.99;99634.47;6177831;20;2908702;-63
2022/07/04 06:26:13;;;;;;;;;6.33;6.00;;;;;30.54;34.68;99622.38;6321551;20;2739857;-63
2022/07/04 06:28:42;;;;;;;;;8.00;7.00;;;;;30.42;35.00;99629.75;6320115;20;2746110;-64
2022/07/04 06:31:15;;;;;;;;;7.00;6.33;;;;;30.62;34.92;99624.88;6318219;20;2744049;-63
2022/07/04 06:36:31;;;;;;;;;8.00;8.00;;;;;31.91;32.67;99617.47;6318746;20;2748238;-64
2022/07/04 06:39:01;;;;;;;;;7.33;7.00;;;;;31.97;32.14;99631.53;6322068;20;2734649;-63
2022/07/04 06:41:29;;;;;;;;;7.00;5.00;;;;;31.59;32.13;99618.75;6322133;20;2734645;-62
2022/07/04 06:43:58;;;;;;;;;9.00;8.00;;;;;32.17;32.14;99625.66;6321687;20;2745026;-63
2022/07/04 06:46:26;;;;;;;;;4.67;4.67;;;;;31.91;31.14;99627.72;6319642;20;2736757;-63
2022/07/04 06:48:55;;;;;;;;;7.00;6.00;;;;;31.97;30.81;99624.03;6324221;20;2731630;-64
2022/07/04 06:51:25;;;;;;;;;5.00;5.00;;;;;32.25;30.27;99625.31;6316858;20;2741941;-64
2022/07/04 06:53:54;;;;;;;;;5.33;5.33;;;;;31.88;29.64;99628.19;6322081;20;2745217;-63
2022/07/04 06:56:22;;;;;;;;;4.67;4.67;;;;;32.05;30.03;99622.84;6320081;20;2741946;-65
2022/07/04 06:58:51;;;;;;;;;5.67;5.00;;;;;32.50;30.14;99633.50;6319222;20;2741915;-62
2022/07/04 07:01:19;;;;;;;;;3.67;3.00;;;;;31.99;28.50;99637.66;6330383;20;2744114;-61
2022/07/04 07:03:48;;;;;;;;;3.33;3.33;;;;;31.70;29.20;99621.59;6320840;20;2735757;-62
2022/07/04 07:06:17;;;;;;;;;5.33;5.33;;;;;32.28;28.52;99619.28;6320195;20;2735142;-64
2022/07/04 07:08:45;;;;;;;;;4.33;4.33;;;;;32.52;27.89;99623.84;6319055;20;2748200;-62
2022/07/04 07:11:14;;;;;;;;;6.00;6.00;;;;;32.40;28.03;99622.94;6318735;20;2745059;-64
2022/07/04 07:13:46;;;;;;;;;6.33;6.33;;;;;32.52;27.89;99626.63;6320306;20;2748654;-63
2022/07/04 07:16:15;;;;;;;;;5.67;5.67;;;;;32.58;28.22;99628.44;6326376;20;2739947;-63
2022/07/04 07:18:46;;;;;;;;;4.00;4.00;;;;;32.94;28.18;99620.09;6320387;20;2743169;-64
2022/07/04 07:21:15;;;;;;;;;5.00;5.00;;;;;32.38;29.19;99616.75;6321505;20;2739887;-64
2022/07/04 07:23:43;;;;;;;;;6.00;6.00;;;;;32.79;28.45;99612.25;6320394;20;2731564;-62
2022/07/04 07:26:12;;;;;;;;;5.33;5.00;;;;;32.91;27.99;99609.44;6320334;20;2736708;-63
2022/07/04 07:28:41;;;;;;;;;4.33;4.33;;;;;33.04;27.03;99613.94;6320150;20;2742987;-64
2022/07/04 07:31:10;;;;;;;;;3.00;3.00;;;;;33.37;26.62;99621.66;6318249;20;2730507;-66
2022/07/04 07:33:38;;;;;;;;;5.00;5.00;;;;;33.53;26.48;99611.69;6321055;20;2738907;-64
2022/07/04 07:36:08;;;;;;;;;4.20;4.20;;;;;33.56;27.48;99608.44;6341541;20;2730459;-65
2022/07/04 07:38:36;;;;;;;;;4.00;4.00;;;;;32.87;27.09;99609.09;6295066;20;2751357;-65
2022/07/04 07:41:11;;;;;;;;;4.33;4.33;;;;;34.01;26.05;99618.78;6318851;20;2744050;-63
2022/07/04 07:43:40;;;;;;;;;4.00;4.00;;;;;34.36;25.59;99620.53;6321156;20;2744174;-64
2022/07/04 07:46:09;;;;;;;;;4.33;4.33;;;;;34.13;25.64;99615.97;6318844;20;2750275;-63
2022/07/04 07:48:37;;;;;;;;;3.00;3.00;;;;;34.14;25.29;99620.44;6321152;20;2742348;-64
2022/07/04 07:51:06;;;;;;;;;3.00;3.00;;;;;34.59;25.04;99614.00;6319227;20;2732676;-65
2022/07/04 07:53:36;;;;;;;;;4.60;4.00;;;;;34.73;24.72;99616.19;6344496;20;2736737;-63
2022/07/04 07:56:25;;;;;;;;;5.60;5.60;;;;;35.15;24.68;99618.53;6310652;20;2734747;-65
2022/07/04 07:58:55;;;;;;;;;3.67;3.67;;;;;34.75;24.23;99619.56;6287134;20;2742953;-65
2022/07/04 08:01:23;;;;;;;;;3.00;3.00;;;;;34.37;24.83;99625.03;6320520;20;2742978;-65
2022/07/04 08:06:41;;;;;;;;;10.00;6.00;;;;;34.34;23.99;99617.16;6317493;20;2767973;-66
2022/07/04 08:09:31;;;;;;;;;3.67;3.67;;;;;33.72;24.75;99616.00;6319695;20;2747171;-65
2022/07/04 08:12:03;;;;;;;;;6.00;4.00;;;;;34.30;24.05;99602.88;6316880;20;2735663;-65
2022/07/04 08:14:33;;;;;;;;;7.67;7.00;;;;;34.14;23.35;99612.94;6316774;20;3452347;-66
2022/07/04 08:17:02;;;;;;;;;8.00;3.67;;;;;34.60;23.42;99610.97;6323883;20;2755546;-64
2022/07/04 08:19:30;;;;;;;;;4.00;4.00;;;;;34.90;22.67;99609.75;6320145;20;2748219;-65
2022/07/04 08:21:59;;;;;;;;;5.33;4.33;;;;;34.46;23.11;99609.56;6324677;20;2736803;-64
2022/07/04 08:24:44;;;;;;;;;2.00;2.00;;;;;34.41;23.07;99603.91;6322538;20;2737789;-65
2022/07/04 08:27:13;;;;;;;;;4.00;3.00;;;;;35.01;22.80;99605.16;6324026;20;2746116;-63
2022/07/04 08:29:42;;;;;;;;;2.00;2.00;;;;;34.34;23.35;99604.09;6323893;20;2735679;-63
2022/07/04 08:32:11;;;;;;;;;4.00;4.00;;;;;35.05;23.50;99611.94;6323676;20;2733681;-63
2022/07/04 08:34:39;;;;;;;;;3.00;3.00;;;;;34.92;23.54;99596.38;6324882;20;2748210;-66
2022/07/04 08:37:08;;;;;;;;;5.67;5.67;;;;;34.88;23.46;99607.19;6324898;20;2732656;-65
2022/07/04 08:39:37;;;;;;;;;5.00;5.00;;;;;34.98;24.12;99606.50;6322734;20;2744049;-64
2022/07/04 08:42:16;;;;;;;;;5.33;5.33;;;;;34.86;24.16;99602.97;6325743;20;2735713;-66
2022/07/04 08:44:53;;;;;;;;;5.00;3.67;;;;;34.85;24.85;99602.13;6321478;20;2738822;-65
2022/07/04 08:47:24;;;;;;;;;3.00;3.00;;;;;34.49;24.21;99597.91;6346999;20;2738807;-65
2022/07/04 08:50:16;;;;;;;;;4.00;4.00;;;;;35.11;23.66;99611.75;6291326;20;2741062;-65
2022/07/04 08:53:05;;;;;;;;;3.33;3.33;;;;;35.08;23.42;99608.66;6321148;20;2751334;-64
2022/07/04 08:58:26;;;;;;;;;2.00;2.00;;;;;34.80;21.94;99598.44;6323248;20;2750239;-66
2022/07/04 09:01:08;;;;;;;;;2.00;2.00;;;;;35.40;22.05;99606.00;6323675;20;2735684;-65
2022/07/04 09:03:37;;;;;;;;;3.20;3.00;;;;;35.80;22.27;99613.22;6344957;20;2748197;-64
2022/07/04 09:06:06;;;;;;;;;3.00;3.00;;;;;34.53;23.35;99604.69;6291863;20;2746575;-64
2022/07/04 09:08:37;;;;;;;;;1.80;1.80;;;;;35.04;22.46;99605.47;6343165;20;2747157;-63
2022/07/04 09:11:08;;;;;;;;;3.20;3.20;;;;;35.20;22.87;99608.53;6315385;20;2743005;-65
2022/07/04 09:13:36;;;;;;;;;4.67;4.00;;;;;35.56;22.47;99602.28;6292465;20;2744158;-66
2022/07/04 09:16:06;;;;;;;;;3.00;3.00;;;;;35.15;22.27;99607.38;6342131;20;2749245;-65
2022/07/04 09:18:37;;;;;;;;;2.00;2.00;;;;;35.85;21.88;99604.03;6316119;20;2748195;-64
2022/07/04 09:21:10;;;;;;;;;4.40;3.00;;;;;35.98;22.06;99593.28;6315459;20;2740910;-64
2022/07/04 09:23:43;;;;;;;;;4.00;3.00;;;;;35.38;21.28;99594.25;6289039;20;2750317;-67
2022/07/04 09:26:21;;;;;;;;;2.00;1.00;;;;;35.27;20.59;99586.84;6345077;20;2748180;-62
2022/07/04 09:28:57;;;;;;;;;1.00;1.00;;;;;35.05;20.66;99584.84;6314728;20;2741907;-64
2022/07/04 09:31:31;;;;;;;;;2.00;2.00;;;;;35.21;21.35;99590.69;6313074;20;2735838;-63
2022/07/04 09:34:04;;;;;;;;;4.00;3.00;;;;;35.30;20.29;99589.94;6289469;20;2753367;-64
2022/07/04 09:36:41;;;;;;;;;1.67;1.67;;;;;35.47;20.92;99581.53;6322026;20;2726299;-63
2022/07/04 09:39:21;;;;;;;;;0.00;0.00;;;;;35.17;20.94;99588.38;6322877;20;2729426;-65
2022/07/04 09:42:01;;;;;;;;;3.33;2.00;;;;;34.59;20.98;99580.53;6322228;20;2756495;-66
2022/07/04 09:44:44;;;;;;;;;1.00;1.00;;;;;34.10;20.56;99589.47;6345724;20;2733653;-64
2022/07/04 09:47:28;;;;;;;;;0.20;0.00;;;;;35.20;19.46;99588.97;6312964;20;2721121;-65
2022/07/04 09:50:13;;;;;;;;;2.00;1.00;;;;;35.52;19.23;99589.97;6346804;20;2742090;-58
2022/07/04 09:53:01;;;;;;;;;2.00;1.00;;;;;35.56;19.97;99584.69;6314768;20;2752322;-56
2022/07/04 09:55:35;;;;;;;;;0.60;0.60;;;;;35.57;19.27;99584.47;6311483;20;2735653;-55
2022/07/04 09:58:10;;;;;;;;;1.00;1.00;;;;;35.92;18.68;99587.94;6297121;20;2448310;-52
2022/07/04 10:00:45;;;;;;;;;1.00;1.00;;;;;35.73;18.83;99588.28;6321289;20;2744014;-58
2022/07/04 10:03:26;;;;;;;;;1.33;1.33;;;;;36.40;19.26;99578.59;6323030;20;2741939;-58
2022/07/04 10:06:18;;;;;;;;;1.67;1.67;;;;;35.57;19.54;99584.47;6322122;20;2745024;-52
2022/07/04 10:08:46;;;;;;;;;1.00;1.00;;;;;35.40;20.10;99569.69;6321415;20;2750283;-55
2022/07/04 10:11:15;;;;;;;;;1.00;1.00;;;;;35.79;19.86;99566.81;6321207;20;2736731;-55
2022/07/04 10:13:49;;;;;;;;;1.33;1.33;;;;;35.61;19.28;99570.81;6321582;20;2742004;-57
2022/07/04 10:16:17;;;;;;;;;0.67;0.67;;;;;35.85;19.69;99568.56;6320455;20;2733660;-57
2022/07/04 10:18:46;;;;;;;;;2.00;2.00;;;;;35.38;20.48;99569.94;6319557;20;2735723;-56
2022/07/04 10:21:16;;;;;;;;;2.00;2.00;;;;;35.76;19.84;99567.34;6321205;20;2736726;-56
2022/07/04 10:23:46;;;;;;;;;2.33;2.33;;;;;35.68;20.43;99559.41;6317682;20;2741900;-56
2022/07/04 10:26:20;;;;;;;;;6.20;3.00;;;;;35.46;20.18;99556.63;6343281;20;2750285;-55
2022/07/04 10:28:52;;;;;;;;;2.40;2.40;;;;;35.94;21.13;99558.59;6315653;20;2748269;-52
2022/07/04 10:31:28;;;;;;;;;2.00;2.00;;;;;36.12;20.19;99556.53;6289653;20;2735665;-56
2022/07/04 10:34:01;;;;;;;;;2.00;2.00;;;;;36.94;20.17;99551.56;6320569;20;2739934;-57
2022/07/04 10:36:31;;;;;;;;;2.67;1.33;;;;;36.98;19.91;99550.75;6318360;20;2727343;-55
2022/07/04 10:39:03;;;;;;;;;2.00;2.00;;;;;36.27;20.60;99553.88;6322712;20;2753385;-57
2022/07/04 10:41:32;;;;;;;;;4.33;3.00;;;;;36.10;20.83;99544.78;6321402;20;2752345;-57
2022/07/04 10:44:16;;;;;;;;;3.00;3.00;;;;;36.38;21.11;99550.06;6319577;20;2745081;-59
2022/07/04 10:46:49;;;;;;;;;3.00;3.00;;;;;36.71;21.04;99539.69;6324393;20;2748204;-56
2022/07/04 10:49:24;;;;;;;;;4.00;4.00;;;;;36.15;20.78;99542.03;6321072;20;2740901;-58
2022/07/04 10:52:11;;;;;;;;;4.33;3.00;;;;;36.09;21.82;99535.56;6321257;20;2739852;-51
2022/07/04 10:54:43;;;;;;;;;3.67;3.00;;;;;36.18;20.35;99530.31;6320108;20;2754411;-58
2022/07/04 10:57:24;;;;;;;;;2.00;2.00;;;;;36.90;19.80;99532.53;6318557;20;2735694;-56
2022/07/04 10:59:56;;;;;;;;;4.00;3.00;;;;;36.84;20.85;99538.38;6320836;20;2755441;-56
2022/07/04 11:02:34;;;;;;;;;2.00;2.00;;;;;36.42;20.07;99536.41;6320671;20;2737847;-56
2022/07/04 11:05:11;;;;;;;;;3.00;3.00;;;;;36.16;20.36;99527.81;6321034;20;2748162;-58
2022/07/04 11:07:40;;;;;;;;;1.00;1.00;;;;;36.53;19.63;99520.53;6321366;20;2734679;-58
2022/07/04 11:12:55;;;;;;;;;2.00;2.00;;;;;37.25;19.11;99533.00;6328497;20;2741936;-53
2022/07/04 11:15:27;;;;;;;;;5.00;2.00;;;;;36.54;19.72;99527.78;6324385;20;2752521;-58
2022/07/04 11:18:02;;;;;;;;;1.33;1.33;;;;;36.59;18.95;99520.31;6322127;20;2732592;-55
2022/07/04 11:20:34;;;;;;;;;1.00;1.00;;;;;36.09;18.62;99524.38;6321444;20;2741984;-51
2022/07/04 11:23:12;;;;;;;;;1.00;1.00;;;;;36.64;18.77;99511.09;6320040;20;2743985;-56
2022/07/04 11:25:45;;;;;;;;;2.00;2.00;;;;;37.70;18.19;99512.69;6326316;20;2621078;-55
2022/07/04 11:28:32;;;;;;;;;1.00;1.00;;;;;36.39;18.25;99504.22;6321245;20;2743981;-59
2022/07/04 11:31:11;;;;;;;;;2.00;2.00;;;;;37.24;18.19;99504.16;6320137;20;2727339;-57
2022/07/04 11:33:42;;;;;;;;;1.00;1.00;;;;;37.43;18.50;99496.06;6319678;20;2731915;-56
2022/07/04 11:36:20;;;;;;;;;2.00;2.00;;;;;37.02;19.31;99492.25;6316035;20;2735667;-57
2022/07/04 11:39:06;;;;;;;;;2.00;2.00;;;;;37.50;17.87;99498.66;6322205;20;2722131;-56
2022/07/04 11:47:36;;;;;;;;;1.00;1.00;;;;;36.99;17.77;99490.84;6317772;20;2744052;-57
2022/07/04 11:50:18;;;;;;;;;2.00;2.00;;;;;37.38;17.72;99484.03;6320523;20;2731509;-57